createdAt,value
2023-03-21T00:00:37.689Z,6.45
2023-03-21T00:03:22.671Z,6.46
2023-03-21T00:05:54.170Z,6.49
2023-03-21T00:08:22.220Z,6.51
2023-03-21T00:10:49.833Z,6.54
2023-03-21T00:13:19.191Z,6.57
2023-03-21T00:16:21.530Z,6.61
2023-03-21T00:18:46.714Z,6.63
2023-03-21T00:21:39.649Z,6.69
2023-03-21T00:24:03.104Z,6.72
2023-03-21T00:26:31.750Z,6.74
2023-03-21T00:28:59.371Z,6.75
2023-03-21T00:31:29.388Z,6.80
2023-03-21T00:33:59.201Z,6.82
2023-03-21T00:36:26.946Z,6.83
2023-03-21T00:38:54.593Z,6.83
2023-03-21T00:41:39.227Z,6.85
2023-03-21T00:44:09.464Z,6.84
2023-03-21T00:46:45.493Z,6.87
2023-03-21T00:49:17.026Z,6.91
2023-03-21T00:51:44.793Z,6.90
2023-03-21T00:54:12.427Z,6.87
2023-03-21T00:56:40.204Z,6.85
2023-03-21T00:59:08.022Z,6.84
2023-03-21T01:01:35.674Z,6.85
2023-03-21T01:04:05.656Z,6.86
2023-03-21T01:06:33.431Z,6.88
2023-03-21T01:09:01.139Z,6.87
2023-03-21T01:11:33.591Z,6.88
2023-03-21T01:14:18.674Z,6.86
2023-03-21T01:16:49.214Z,6.88
2023-03-21T01:19:25.533Z,6.87
2023-03-21T01:21:55.496Z,6.84
2023-03-21T01:24:23.252Z,6.84
2023-03-21T01:26:54.655Z,6.85
2023-03-21T01:29:22.333Z,6.82
2023-03-21T01:31:49.971Z,6.77
2023-03-21T01:34:19.038Z,6.75
2023-03-21T01:36:46.793Z,6.72
2023-03-21T01:39:14.357Z,6.72
2023-03-21T01:41:44.044Z,6.79
2023-03-21T01:44:12.293Z,6.84
2023-03-21T01:46:49.628Z,6.87
2023-03-21T01:49:24.973Z,6.80
2023-03-21T01:51:55.072Z,6.72
2023-03-21T01:54:28.089Z,6.69
2023-03-21T01:56:55.848Z,6.71
2023-03-21T01:59:23.479Z,6.67
2023-03-21T02:01:51.307Z,6.64
2023-03-21T02:04:22.238Z,6.64
2023-03-21T02:06:49.828Z,6.65
2023-03-21T02:09:17.868Z,6.63
2023-03-21T02:11:48.444Z,6.67
2023-03-21T02:14:26.601Z,6.69
2023-03-21T02:16:56.327Z,6.70
2023-03-21T02:19:31.974Z,6.67
2023-03-21T02:22:02.088Z,6.66
2023-03-21T02:24:31.181Z,6.67
2023-03-21T02:27:04.029Z,6.70
2023-03-21T02:29:32.884Z,6.74
2023-03-21T02:32:09.285Z,6.78
2023-03-21T02:34:43.076Z,6.79
2023-03-21T02:37:11.512Z,6.81
2023-03-21T02:39:40.626Z,6.81
2023-03-21T02:42:08.329Z,6.80
2023-03-21T02:44:36.359Z,6.76
2023-03-21T02:47:06.311Z,6.68
2023-03-21T02:49:34.531Z,6.63
2023-03-21T02:52:12.228Z,6.61
2023-03-21T02:54:48.385Z,6.60
2023-03-21T02:57:16.751Z,6.61
2023-03-21T02:59:53.593Z,6.62
2023-03-21T03:02:23.308Z,6.63
2023-03-21T03:04:53.245Z,6.67
2023-03-21T03:07:20.932Z,6.62
2023-03-21T03:09:49.992Z,6.45
2023-03-21T03:12:17.673Z,6.29
2023-03-21T03:15:00.251Z,6.18
2023-03-21T03:17:29.915Z,6.12
2023-03-21T03:19:57.987Z,6.09
2023-03-21T03:22:25.649Z,6.05
2023-03-21T03:24:54.066Z,5.97
2023-03-21T03:27:24.671Z,5.89
2023-03-21T03:29:52.288Z,5.82
2023-03-21T03:32:19.933Z,5.79
2023-03-21T03:34:49.796Z,5.74
2023-03-21T03:37:17.352Z,5.67
2023-03-21T03:39:44.908Z,5.69
2023-03-21T03:42:25.416Z,5.72
2023-03-21T03:44:55.012Z,5.73
2023-03-21T03:47:32.328Z,5.78
2023-03-21T03:50:04.158Z,5.84
2023-03-21T03:52:50.131Z,5.91
2023-03-21T03:55:23.547Z,5.92
2023-03-21T03:57:51.148Z,5.95
2023-03-21T04:00:18.861Z,5.99
2023-03-21T04:02:46.714Z,6.02
2023-03-21T04:05:15.397Z,6.03
2023-03-21T04:07:43.262Z,6.08
2023-03-21T04:10:10.888Z,6.14
2023-03-21T04:12:38.531Z,6.17
2023-03-21T04:15:10.806Z,6.15
2023-03-21T04:17:39.849Z,6.13
2023-03-21T04:20:15.036Z,6.16
2023-03-21T04:22:46.391Z,6.25
2023-03-21T04:25:19.026Z,6.32
2023-03-21T04:27:52.017Z,6.35
2023-03-21T04:30:19.968Z,6.34
2023-03-21T04:32:56.881Z,6.31
2023-03-21T04:35:25.075Z,6.29
2023-03-21T04:37:55.102Z,6.29
2023-03-21T04:40:25.595Z,6.28
2023-03-21T04:42:55.639Z,6.29
2023-03-21T04:45:23.891Z,6.30
2023-03-21T04:47:51.552Z,6.29
2023-03-21T04:50:19.682Z,6.28
2023-03-21T04:52:47.352Z,6.28
2023-03-21T04:55:16.108Z,6.24
2023-03-21T04:57:43.806Z,6.22
2023-03-21T05:00:15.128Z,6.21
2023-03-21T05:02:46.259Z,6.23
2023-03-21T05:05:14.128Z,6.29
2023-03-21T05:07:42.148Z,6.32
2023-03-21T05:10:10.243Z,6.32
2023-03-21T05:12:37.822Z,6.32
2023-03-21T05:15:05.736Z,6.32
2023-03-21T05:17:33.647Z,6.31
2023-03-21T05:20:01.548Z,6.32
2023-03-21T05:22:29.192Z,6.37
2023-03-21T05:24:57.087Z,6.38
2023-03-21T05:27:37.136Z,6.37
2023-03-21T05:30:04.826Z,6.40
2023-03-21T05:32:32.430Z,6.44
2023-03-21T05:35:01.994Z,6.47
2023-03-21T05:37:29.676Z,6.47
2023-03-21T05:39:57.575Z,6.45
2023-03-21T05:42:25.233Z,6.41
2023-03-21T05:44:53.085Z,6.36
2023-03-21T05:47:21.040Z,6.35
2023-03-21T05:49:50.027Z,6.41
2023-03-21T05:52:18.312Z,6.52
2023-03-21T05:54:45.923Z,6.61
2023-03-21T05:57:13.560Z,6.56
2023-03-21T05:59:43.929Z,6.52
2023-03-21T06:02:12.190Z,6.49
2023-03-21T06:04:40.353Z,6.54
2023-03-21T06:07:08.329Z,6.56
2023-03-21T06:09:36.285Z,6.57
2023-03-21T06:12:03.855Z,6.64
2023-03-21T06:14:32.012Z,7.19
2023-03-21T06:16:59.651Z,7.43
2023-03-21T06:19:27.399Z,7.19
2023-03-21T06:21:55.073Z,6.92
2023-03-21T06:24:22.686Z,6.72
2023-03-21T06:26:51.134Z,6.62
2023-03-21T06:29:18.794Z,6.55
2023-03-21T06:31:47.304Z,6.53
2023-03-21T06:34:15.103Z,6.52
2023-03-21T06:36:44.805Z,6.54
2023-03-21T06:39:12.546Z,6.55
2023-03-21T06:41:40.609Z,6.55
2023-03-21T06:44:08.328Z,6.55
2023-03-21T06:46:36.046Z,6.62
2023-03-21T06:49:03.762Z,6.68
2023-03-21T06:51:31.977Z,6.71
2023-03-21T06:53:59.591Z,6.71
2023-03-21T06:56:27.208Z,6.74
2023-03-21T06:58:55.182Z,6.81
2023-03-21T07:01:22.797Z,6.86
2023-03-21T07:03:50.758Z,6.93
2023-03-21T07:06:18.374Z,7.01
2023-03-21T07:08:48.243Z,7.11
2023-03-21T07:11:15.902Z,7.17
2023-03-21T07:13:43.509Z,7.22
2023-03-21T07:16:11.160Z,7.22
2023-03-21T07:18:38.749Z,7.24
2023-03-21T07:21:06.582Z,7.25
2023-03-21T07:23:34.751Z,7.25
2023-03-21T07:26:02.506Z,7.25
2023-03-21T07:28:32.501Z,7.26
2023-03-21T07:31:00.146Z,7.30
2023-03-21T07:33:28.699Z,7.37
2023-03-21T07:35:58.066Z,7.42
2023-03-21T07:38:25.976Z,7.46
2023-03-21T07:40:55.990Z,7.51
2023-03-21T07:43:23.673Z,7.57
2023-03-21T07:45:51.287Z,7.61
2023-03-21T07:48:19.672Z,7.68
2023-03-21T07:50:47.527Z,7.74
2023-03-21T07:53:15.122Z,7.85
2023-03-21T07:55:42.720Z,7.95
2023-03-21T07:58:10.525Z,8.05
2023-03-21T08:00:38.722Z,8.11
2023-03-21T08:03:06.385Z,8.19
2023-03-21T08:05:34.157Z,8.28
2023-03-21T08:08:04.899Z,8.37
2023-03-21T08:10:32.429Z,8.45
2023-03-21T08:13:00.075Z,8.52
2023-03-21T08:15:27.972Z,8.62
2023-03-21T08:17:55.574Z,8.74
2023-03-21T08:20:23.625Z,8.77
2023-03-21T08:22:56.319Z,8.82
2023-03-21T08:25:26.756Z,8.86
2023-03-21T08:27:54.466Z,8.80
2023-03-21T08:30:22.097Z,8.76
2023-03-21T08:32:49.861Z,8.76
2023-03-21T08:35:18.418Z,8.78
2023-03-21T08:37:46.317Z,8.81
2023-03-21T08:40:14.094Z,8.88
2023-03-21T08:42:41.838Z,8.92
2023-03-21T08:45:09.523Z,8.90
2023-03-21T08:47:37.252Z,8.90
2023-03-21T08:50:06.916Z,8.93
2023-03-21T08:52:34.781Z,8.96
2023-03-21T08:55:02.840Z,9.02
2023-03-21T08:57:30.439Z,9.12
2023-03-21T08:59:58.164Z,9.15
2023-03-21T09:02:26.266Z,9.22
2023-03-21T09:04:55.120Z,9.26
2023-03-21T09:07:26.530Z,9.39
2023-03-21T09:10:15.139Z,9.45
2023-03-21T09:12:42.254Z,9.55
2023-03-21T09:15:10.109Z,9.56
2023-03-21T09:17:42.289Z,9.61
2023-03-21T09:20:11.544Z,9.63
2023-03-21T09:22:41.906Z,9.65
2023-03-21T09:25:11.577Z,9.61
2023-03-21T09:27:43.415Z,9.61
2023-03-21T09:30:11.454Z,9.62
2023-03-21T09:32:40.144Z,9.67
2023-03-21T09:35:10.378Z,9.76
2023-03-21T09:37:42.297Z,9.83
2023-03-21T09:40:10.354Z,9.90
2023-03-21T09:42:39.124Z,9.96
2023-03-21T09:45:08.805Z,10.06
2023-03-21T09:47:37.762Z,10.11
2023-03-21T09:50:16.416Z,10.14
2023-03-21T09:52:44.709Z,10.17
2023-03-21T09:55:19.052Z,10.16
2023-03-21T09:57:49.514Z,10.09
2023-03-21T10:00:21.013Z,10.01
2023-03-21T10:02:56.905Z,9.97
2023-03-21T10:05:25.923Z,9.92
2023-03-21T10:07:53.982Z,9.84
2023-03-21T10:10:22.217Z,9.79
2023-03-21T10:12:49.955Z,9.82
2023-03-21T10:15:17.683Z,9.85
2023-03-21T10:17:45.445Z,9.87
2023-03-21T10:20:13.463Z,9.83
2023-03-21T10:22:41.106Z,9.87
2023-03-21T10:25:08.695Z,9.90
2023-03-21T10:27:37.184Z,9.93
2023-03-21T10:30:07.650Z,9.89
2023-03-21T10:32:35.929Z,9.85
2023-03-21T10:35:05.138Z,9.87
2023-03-21T10:37:42.235Z,9.88
2023-03-21T10:40:10.172Z,9.86
2023-03-21T10:42:38.061Z,9.78
2023-03-21T10:45:07.072Z,9.61
2023-03-21T10:47:35.158Z,9.37
2023-03-21T10:50:08.247Z,9.20
2023-03-21T10:52:36.881Z,9.03
2023-03-21T10:55:05.540Z,8.87
2023-03-21T10:57:33.773Z,8.76
2023-03-21T11:00:01.848Z,8.69
2023-03-21T11:02:29.821Z,8.58
2023-03-21T11:04:58.443Z,8.45
2023-03-21T11:07:26.101Z,8.29
2023-03-21T11:09:53.879Z,8.14
2023-03-21T11:12:21.949Z,8.08
2023-03-21T11:14:51.498Z,8.11
2023-03-21T11:17:27.956Z,8.13
2023-03-21T11:19:55.646Z,8.14
2023-03-21T11:22:23.439Z,8.16
2023-03-21T11:24:54.419Z,8.19
2023-03-21T11:27:29.475Z,8.27
2023-03-21T11:29:58.125Z,8.35
2023-03-21T11:32:26.477Z,8.43
2023-03-21T11:34:54.238Z,8.52
2023-03-21T11:37:21.851Z,8.57
2023-03-21T11:39:49.450Z,8.62
2023-03-21T11:42:19.946Z,8.66
2023-03-21T11:44:47.660Z,8.64
2023-03-21T11:47:15.694Z,8.62
2023-03-21T11:49:43.546Z,8.68
2023-03-21T11:52:16.662Z,8.65
2023-03-21T11:54:44.635Z,8.57
2023-03-21T11:57:12.400Z,8.55
2023-03-21T11:59:41.045Z,8.56
2023-03-21T12:02:08.683Z,8.58
2023-03-21T12:04:36.428Z,8.55
2023-03-21T12:07:06.813Z,8.55
2023-03-21T12:09:34.618Z,8.54
2023-03-21T12:12:02.463Z,8.58
2023-03-21T12:14:29.998Z,8.64
2023-03-21T12:16:57.669Z,8.67
2023-03-21T12:19:26.214Z,8.66
2023-03-21T12:21:55.083Z,8.65
2023-03-21T12:24:22.799Z,8.62
2023-03-21T12:26:50.524Z,8.58
2023-03-21T12:29:19.739Z,8.52
2023-03-21T12:31:47.798Z,8.48
2023-03-21T12:34:16.400Z,8.47
2023-03-21T12:36:48.440Z,8.48
2023-03-21T12:39:19.088Z,8.54
2023-03-21T12:41:46.960Z,8.60
2023-03-21T12:44:15.078Z,8.59
2023-03-21T12:46:42.868Z,8.60
2023-03-21T12:49:13.320Z,8.63
2023-03-21T12:51:41.034Z,8.68
2023-03-21T12:54:08.738Z,8.72
2023-03-21T12:56:42.256Z,8.74
2023-03-21T12:59:13.176Z,8.72
2023-03-21T13:01:41.056Z,8.78
2023-03-21T13:04:09.701Z,8.81
2023-03-21T13:06:37.578Z,8.79
2023-03-21T13:09:06.518Z,8.81
2023-03-21T13:11:37.562Z,8.80
2023-03-21T13:14:06.024Z,8.78
2023-03-21T13:16:34.121Z,8.75
2023-03-21T13:19:01.877Z,8.75
2023-03-21T13:21:33.167Z,8.76
2023-03-21T13:24:03.702Z,8.78
2023-03-21T13:26:35.106Z,8.98
2023-03-21T13:29:04.917Z,9.45
2023-03-21T13:31:50.850Z,9.47
2023-03-21T13:34:19.804Z,9.18
2023-03-21T13:36:48.944Z,9.02
2023-03-21T13:39:16.755Z,8.91
2023-03-21T13:41:47.700Z,8.89
2023-03-21T13:44:22.313Z,8.84
2023-03-21T13:46:54.202Z,8.75
2023-03-21T13:49:24.572Z,8.70
2023-03-21T13:51:55.375Z,8.70
2023-03-21T13:54:24.318Z,8.67
2023-03-21T13:56:52.299Z,8.64
2023-03-21T13:59:21.437Z,8.63
2023-03-21T14:01:52.947Z,8.66
2023-03-21T14:04:24.091Z,8.72
2023-03-21T14:06:57.390Z,8.85
2023-03-21T14:09:26.868Z,8.96
2023-03-21T14:12:07.039Z,9.01
2023-03-21T14:14:36.437Z,9.09
2023-03-21T14:17:04.510Z,9.14
2023-03-21T14:19:32.360Z,9.22
2023-03-21T14:22:05.116Z,9.26
2023-03-21T14:24:35.464Z,9.27
2023-03-21T14:27:10.403Z,9.23
2023-03-21T14:29:41.569Z,9.22
2023-03-21T14:32:09.323Z,9.23
2023-03-21T14:34:37.669Z,9.26
2023-03-21T14:37:06.943Z,9.30
2023-03-21T14:39:35.896Z,9.39
2023-03-21T14:42:28.205Z,9.47
2023-03-21T14:45:01.813Z,9.52
2023-03-21T14:47:30.075Z,9.56
2023-03-21T14:49:58.410Z,9.64
2023-03-21T14:52:27.239Z,9.68
2023-03-21T14:54:58.897Z,9.71
2023-03-21T14:57:29.694Z,9.70
2023-03-21T14:59:58.335Z,9.65
2023-03-21T15:02:27.453Z,9.63
2023-03-21T15:04:57.590Z,9.52
2023-03-21T15:07:27.283Z,9.40
2023-03-21T15:09:55.676Z,9.34
2023-03-21T15:12:23.313Z,9.32
2023-03-21T15:14:56.113Z,9.28
2023-03-21T15:17:24.631Z,9.25
2023-03-21T15:19:54.625Z,9.18
2023-03-21T15:22:22.546Z,9.13
2023-03-21T15:24:56.596Z,9.07
2023-03-21T15:27:26.922Z,9.03
2023-03-21T15:29:55.700Z,9.06
2023-03-21T15:32:23.819Z,9.13
2023-03-21T15:34:55.813Z,9.13
2023-03-21T15:37:26.480Z,9.13
2023-03-21T15:39:56.754Z,9.14
2023-03-21T15:42:29.490Z,9.15
2023-03-21T15:44:59.738Z,9.15
2023-03-21T15:47:28.358Z,9.17
2023-03-21T15:50:00.567Z,9.19
2023-03-21T15:52:29.747Z,9.17
2023-03-21T15:54:59.389Z,9.11
2023-03-21T15:57:48.585Z,9.02
2023-03-21T16:00:18.469Z,8.93
2023-03-21T16:02:48.838Z,8.89
2023-03-21T16:05:24.415Z,8.85
2023-03-21T16:08:01.975Z,8.80
2023-03-21T16:10:32.526Z,8.75
2023-03-21T16:13:08.654Z,8.73
2023-03-21T16:15:38.550Z,8.70
2023-03-21T16:18:06.833Z,8.65
2023-03-21T16:20:38.010Z,8.59
2023-03-21T16:23:05.925Z,8.53
2023-03-21T16:25:36.345Z,8.50
2023-03-21T16:28:04.840Z,8.51
2023-03-21T16:30:34.184Z,8.49
2023-03-21T16:33:04.801Z,8.45
2023-03-21T16:35:35.303Z,8.37
2023-03-21T16:38:05.909Z,8.29
2023-03-21T16:40:37.490Z,8.22
2023-03-21T16:43:05.862Z,8.16
2023-03-21T16:45:33.848Z,8.11
2023-03-21T16:48:05.620Z,8.09
2023-03-21T16:50:33.936Z,8.05
2023-03-21T16:53:01.960Z,8.03
2023-03-21T16:55:33.081Z,8.02
2023-03-21T16:58:04.362Z,8.01
2023-03-21T17:00:32.896Z,7.98
2023-03-21T17:03:00.967Z,7.92
2023-03-21T17:05:30.405Z,7.87
2023-03-21T17:08:02.171Z,7.83
2023-03-21T17:10:36.918Z,7.80
2023-03-21T17:13:07.307Z,7.84
2023-03-21T17:15:35.180Z,7.86
2023-03-21T17:18:02.876Z,7.81
2023-03-21T17:20:31.752Z,7.78
2023-03-21T17:23:01.904Z,7.74
2023-03-21T17:25:30.366Z,7.72
2023-03-21T17:27:58.858Z,7.66
2023-03-21T17:30:43.039Z,7.63
2023-03-21T17:33:12.147Z,7.58
2023-03-21T17:35:40.088Z,7.51
2023-03-21T17:38:08.046Z,7.44
2023-03-21T17:40:36.124Z,7.38
2023-03-21T17:43:04.715Z,7.30
2023-03-21T17:45:32.374Z,7.25
2023-03-21T17:48:00.873Z,7.22
2023-03-21T17:50:40.130Z,7.19
2023-03-21T17:53:10.817Z,7.15
2023-03-21T17:55:41.482Z,7.20
2023-03-21T17:58:12.022Z,7.27
2023-03-21T18:00:44.559Z,7.31
2023-03-21T18:03:14.502Z,7.31
2023-03-21T18:05:43.550Z,7.31
2023-03-21T18:08:14.537Z,7.39
2023-03-21T18:10:42.682Z,7.46
2023-03-21T18:15:53.011Z,7.41
2023-03-21T18:18:23.521Z,7.40
2023-03-21T18:20:53.781Z,7.34
2023-03-21T18:23:24.523Z,7.29
2023-03-21T18:25:52.768Z,7.28
2023-03-21T18:28:21.389Z,7.26
2023-03-21T18:33:37.136Z,7.29
2023-03-21T18:36:07.553Z,7.33
2023-03-21T18:38:38.667Z,7.32
2023-03-21T18:41:08.986Z,7.29
2023-03-21T18:46:25.186Z,7.27
2023-03-21T18:48:52.864Z,7.26
2023-03-21T18:51:21.899Z,7.25
2023-03-21T18:53:50.237Z,7.22
2023-03-21T18:59:05.414Z,7.11
2023-03-21T19:01:33.780Z,7.10
2023-03-21T19:04:23.778Z,7.08
2023-03-21T19:06:53.319Z,7.05
2023-03-21T19:09:29.077Z,7.05
2023-03-21T19:12:06.006Z,7.07
2023-03-21T19:14:33.562Z,7.06
2023-03-21T19:17:55.846Z,7.07
2023-03-21T19:19:49.606Z,7.06
2023-03-21T19:22:17.865Z,7.03
2023-03-21T19:24:47.204Z,7.01
2023-03-21T19:27:17.810Z,7.00
2023-03-21T19:29:59.780Z,7.03
2023-03-21T19:32:33.052Z,7.10
2023-03-21T19:35:01.064Z,7.10
2023-03-21T19:37:30.564Z,7.10
2023-03-21T19:39:58.287Z,7.09
2023-03-21T19:42:28.524Z,7.05
2023-03-21T19:44:58.348Z,7.03
2023-03-21T19:47:27.314Z,7.00
2023-03-21T19:50:40.736Z,6.97
2023-03-21T19:52:43.032Z,6.98
2023-03-21T19:55:15.101Z,7.03
2023-03-21T19:57:42.908Z,7.06
2023-03-21T20:00:13.799Z,7.06
2023-03-21T20:02:44.424Z,7.10
2023-03-21T20:05:12.397Z,7.17
2023-03-21T20:07:41.860Z,7.16
2023-03-21T20:10:12.000Z,7.14
2023-03-21T20:12:40.253Z,7.16
2023-03-21T20:15:17.015Z,7.18
2023-03-21T20:17:47.137Z,7.19
2023-03-21T20:20:17.085Z,7.24
2023-03-21T20:25:34.066Z,7.26
2023-03-21T20:28:25.547Z,7.28
2023-03-21T20:30:49.896Z,7.30
2023-03-21T20:33:17.781Z,7.28
2023-03-21T20:36:32.180Z,7.27
2023-03-21T20:38:34.404Z,7.32
2023-03-21T20:41:02.067Z,7.31
2023-03-21T20:44:17.524Z,7.26
2023-03-21T20:46:17.593Z,7.24
2023-03-21T20:48:48.899Z,7.24
2023-03-21T20:52:24.263Z,7.17
2023-03-21T20:54:14.540Z,7.15
2023-03-21T20:56:44.328Z,7.11
2023-03-21T20:59:20.975Z,7.04
2023-03-21T21:01:53.037Z,7.00
2023-03-21T21:04:23.113Z,7.03
2023-03-21T21:06:55.317Z,7.02
2023-03-21T21:09:24.112Z,7.06
2023-03-21T21:12:06.720Z,7.10
2023-03-21T21:14:36.150Z,7.16
2023-03-21T21:17:23.134Z,7.18
2023-03-21T21:19:53.343Z,7.08
2023-03-21T21:22:21.153Z,6.98
2023-03-21T21:24:48.863Z,6.91
2023-03-21T21:27:16.651Z,6.87
2023-03-21T21:29:46.754Z,6.86
2023-03-21T21:32:16.967Z,6.85
2023-03-21T21:34:44.568Z,6.83
2023-03-21T21:37:12.646Z,6.82
2023-03-21T21:39:42.205Z,6.80
2023-03-21T21:42:09.901Z,6.78
2023-03-21T21:44:39.833Z,6.77
2023-03-21T21:47:09.405Z,6.77
2023-03-21T21:49:37.291Z,6.79
2023-03-21T21:52:05.047Z,6.83
2023-03-21T21:54:36.964Z,6.83
2023-03-21T21:57:06.030Z,6.86
2023-03-21T21:59:34.053Z,6.83
2023-03-21T22:02:01.805Z,6.83
2023-03-21T22:04:48.806Z,6.82
2023-03-21T22:07:16.726Z,6.77
2023-03-21T22:09:44.905Z,6.72
2023-03-21T22:12:12.544Z,6.69
2023-03-21T22:14:40.450Z,6.61
2023-03-21T22:17:07.975Z,6.42
2023-03-21T22:19:35.697Z,6.29
2023-03-21T22:22:03.252Z,6.18
2023-03-21T22:24:30.943Z,6.08
2023-03-21T22:26:59.052Z,5.95
2023-03-21T22:29:26.644Z,5.84
2023-03-21T22:31:54.353Z,5.85
2023-03-21T22:34:22.112Z,5.88
2023-03-21T22:36:50.725Z,5.84
2023-03-21T22:39:18.372Z,5.87
2023-03-21T22:41:46.139Z,5.90
2023-03-21T22:44:16.618Z,5.87
2023-03-21T22:46:46.825Z,5.88
2023-03-21T22:49:14.369Z,5.88
2023-03-21T22:51:43.141Z,5.86
2023-03-21T22:54:10.793Z,5.81
2023-03-21T22:56:39.000Z,5.74
2023-03-21T22:59:07.978Z,5.76
2023-03-21T23:01:35.999Z,5.75
2023-03-21T23:04:06.416Z,5.70
2023-03-21T23:06:34.078Z,5.60
2023-03-21T23:09:01.998Z,5.47
2023-03-21T23:11:29.598Z,5.43
2023-03-21T23:14:07.112Z,5.41
2023-03-21T23:16:38.493Z,5.42
2023-03-21T23:19:07.799Z,5.47
2023-03-21T23:21:36.834Z,5.50
2023-03-21T23:24:04.452Z,5.46
2023-03-21T23:26:32.039Z,5.49
2023-03-21T23:28:59.710Z,5.51
2023-03-21T23:31:27.365Z,5.47
2023-03-21T23:33:55.022Z,5.42
2023-03-21T23:36:23.300Z,5.37
2023-03-21T23:38:51.086Z,5.30
2023-03-21T23:41:19.330Z,5.23
2023-03-21T23:43:47.883Z,5.11
2023-03-21T23:46:16.127Z,5.02
2023-03-21T23:48:44.966Z,5.02
2023-03-21T23:51:12.488Z,4.96
2023-03-21T23:53:40.503Z,4.92
2023-03-21T23:56:08.093Z,4.89
2023-03-21T23:58:36.990Z,4.87
